Time;durP1;ratioP1;P1;durP2;ratioP2;P2;SDS_P1;SDS_P2;PMS_P1;PMS_P2;Temp;Humidity;BMP_temperature;BMP_pressure;BME280_temperature;BME280_humidity;BME280_pressure;Samples;Min_cycle;Max_cycle;Signal;HPM_P1;HPM_P2
2022/05/02 00:01:01;;;;;;;6.78;3.40;;;;;;;15.78;47.05;99858.75;4442445;32;34672;-89
2022/05/02 00:03:30;;;;;;;6.35;3.25;;;;;;;15.82;46.76;99848.87;4444115;32;33364;-89
2022/05/02 00:05:58;;;;;;;6.18;3.20;;;;;;;15.81;46.56;99858.25;4456776;32;33475;-89
2022/05/02 00:08:25;;;;;;;5.53;3.20;;;;;;;15.80;46.61;99860.19;4451058;32;34631;-86
2022/05/02 00:10:53;;;;;;;5.85;3.65;;;;;;;15.81;46.68;99852.72;4443105;32;33346;-89
2022/05/02 00:13:21;;;;;;;6.12;3.72;;;;;;;15.69;47.30;99843.56;4458613;32;34245;-89
2022/05/02 00:15:49;;;;;;;7.45;3.53;;;;;;;15.50;47.56;99851.09;4455493;32;34026;-90
2022/05/02 00:18:17;;;;;;;6.97;3.95;;;;;;;15.45;48.11;99854.59;4441703;32;33194;-90
2022/05/02 00:20:44;;;;;;;5.55;3.60;;;;;;;15.32;48.88;99856.72;4451844;32;34267;-89
2022/05/02 00:23:12;;;;;;;7.55;3.60;;;;;;;15.62;48.17;99843.69;4452399;32;33553;-89
2022/05/02 00:25:41;;;;;;;7.00;3.70;;;;;;;15.44;48.85;99849.28;4449573;32;33514;-90
2022/05/02 00:28:13;;;;;;;5.87;3.42;;;;;;;15.56;48.69;99843.78;4448212;32;34961;-90
2022/05/02 00:30:42;;;;;;;6.85;3.55;;;;;;;15.66;48.55;99849.59;4459551;32;34841;-91
2022/05/02 00:33:10;;;;;;;5.40;3.25;;;;;;;15.56;48.86;99844.62;4457887;32;33334;-89
2022/05/02 00:35:37;;;;;;;5.37;3.45;;;;;;;15.66;48.54;99847.66;4444238;32;32440;-89
2022/05/02 00:38:05;;;;;;;6.10;3.40;;;;;;;15.65;48.54;99842.38;4443886;32;34507;-90
2022/05/02 00:40:33;;;;;;;5.72;3.45;;;;;;;15.68;48.43;99842.72;4440438;32;32976;-88
2022/05/02 00:43:00;;;;;;;5.68;3.47;;;;;;;15.62;48.65;99843.69;4441964;32;31781;-89
2022/05/02 00:45:28;;;;;;;6.32;3.78;;;;;;;15.62;48.72;99838.16;4436210;32;33016;-89
2022/05/02 00:48:00;;;;;;;7.15;3.50;;;;;;;15.61;48.96;99846.69;4440630;32;33983;-89
2022/05/02 00:50:34;;;;;;;6.82;3.45;;;;;;;15.60;48.98;99858.88;4456050;32;34758;-89
2022/05/02 00:53:04;;;;;;;6.72;3.30;;;;;;;15.62;49.03;99856.66;4456324;32;34034;-90
2022/05/02 00:55:32;;;;;;;7.68;3.65;;;;;;;15.61;48.86;99850.28;4456027;32;34605;-90
2022/05/02 00:58:01;;;;;;;6.50;3.97;;;;;;;15.60;48.75;99853.34;4443365;32;34223;-88
2022/05/02 01:00:30;;;;;;;7.62;3.67;;;;;;;15.44;49.27;99857.59;4442938;32;34012;-90
2022/05/02 01:03:01;;;;;;;7.00;3.42;;;;;;;15.44;49.11;99861.19;4470946;32;33388;-90
2022/05/02 01:05:31;;;;;;;5.37;3.35;;;;;;;15.62;48.65;99859.44;4450727;32;32664;-91
2022/05/02 01:07:58;;;;;;;6.18;3.80;;;;;;;15.40;49.23;99857.22;4443341;32;35289;-89
2022/05/02 01:10:26;;;;;;;6.95;3.95;;;;;;;15.36;49.65;99858.75;4444157;32;34554;-91
2022/05/02 01:12:54;;;;;;;6.72;3.90;;;;;;;15.49;49.27;99860.50;4445074;32;33346;-90
2022/05/02 01:15:22;;;;;;;7.20;3.70;;;;;;;15.41;49.58;99852.53;4443649;32;33854;-91
2022/05/02 01:17:50;;;;;;;7.22;3.85;;;;;;;15.46;49.28;99856.28;4456528;32;33816;-90
2022/05/02 01:20:21;;;;;;;6.45;3.90;;;;;;;15.42;49.70;99856.97;4445135;32;34678;-90
2022/05/02 01:22:49;;;;;;;6.60;3.65;;;;;;;15.40;49.85;99859.13;4443240;32;33074;-89
2022/05/02 01:25:19;;;;;;;6.20;3.85;;;;;;;15.31;50.10;99855.87;4440107;32;33942;-90
2022/05/02 01:27:47;;;;;;;6.53;4.20;;;;;;;15.16;50.42;99850.75;4453035;32;34548;-90
2022/05/02 01:30:14;;;;;;;6.72;4.25;;;;;;;15.36;49.81;99863.44;4440172;32;34823;-89
2022/05/02 01:32:42;;;;;;;6.50;3.90;;;;;;;15.33;50.06;99867.53;4452785;32;33419;-90
2022/05/02 01:35:10;;;;;;;7.22;3.80;;;;;;;15.35;49.77;99862.63;4442423;32;33068;-90
2022/05/02 01:37:38;;;;;;;6.53;4.00;;;;;;;15.40;49.69;99868.28;4455426;32;35165;-90
2022/05/02 01:40:06;;;;;;;6.65;4.10;;;;;;;15.35;49.97;99865.38;4442764;32;33972;-90
2022/05/02 01:42:34;;;;;;;7.03;3.92;;;;;;;15.45;49.55;99860.12;4442885;32;33456;-90
2022/05/02 01:45:04;;;;;;;7.03;3.95;;;;;;;15.40;49.68;99865.50;4429722;32;32610;-88
2022/05/02 01:47:31;;;;;;;6.18;3.65;;;;;;;15.38;49.64;99870.44;4455667;32;35083;-91
2022/05/02 01:49:59;;;;;;;6.30;3.70;;;;;;;15.54;48.65;99871.69;4442497;32;34217;-89
2022/05/02 01:52:27;;;;;;;6.93;4.00;;;;;;;15.29;49.56;99882.06;4442716;32;33059;-91
2022/05/02 01:54:54;;;;;;;5.47;3.47;;;;;;;15.29;49.68;99871.84;4442620;32;34449;-90
2022/05/02 01:57:22;;;;;;;7.45;3.72;;;;;;;15.22;50.02;99864.72;4442607;32;35283;-89
2022/05/02 01:59:51;;;;;;;6.47;3.70;;;;;;;15.25;50.15;99867.88;4442648;32;33914;-90
2022/05/02 02:02:20;;;;;;;6.68;4.03;;;;;;;15.32;50.17;99863.06;4442707;32;34172;-90
2022/05/02 02:07:37;;;;;;;7.18;3.90;;;;;;;15.23;50.67;99878.31;4443912;32;33639;-90
2022/05/02 02:10:05;;;;;;;6.68;4.05;;;;;;;15.28;50.65;99872.09;4442145;32;34500;-90
2022/05/02 02:12:33;;;;;;;6.70;3.90;;;;;;;15.34;50.53;99868.38;4442289;32;33956;-90
2022/05/02 02:15:01;;;;;;;6.75;4.00;;;;;;;15.36;50.55;99866.22;4442156;32;34535;-90
2022/05/02 02:17:29;;;;;;;7.85;3.90;;;;;;;15.39;50.63;99866.59;4441890;32;33618;-91
2022/05/02 02:19:56;;;;;;;6.75;4.05;;;;;;;15.36;50.87;99869.81;4442226;32;34507;-91
2022/05/02 02:22:24;;;;;;;7.45;4.07;;;;;;;15.16;51.27;99866.50;4457102;32;34135;-90
2022/05/02 02:24:52;;;;;;;7.45;3.95;;;;;;;15.11;51.44;99866.38;4441942;32;33637;-90
2022/05/02 02:27:19;;;;;;;6.25;3.92;;;;;;;15.29;51.02;99871.84;4457088;32;34648;-90
2022/05/02 02:29:47;;;;;;;7.30;3.80;;;;;;;15.39;50.68;99874.88;4444183;32;34701;-90
2022/05/02 02:32:14;;;;;;;8.73;4.65;;;;;;;15.43;50.52;99856.75;4444359;32;33227;-89
2022/05/02 02:34:42;;;;;;;6.28;3.95;;;;;;;15.48;50.50;99865.19;4444398;32;34005;-90
2022/05/02 02:37:10;;;;;;;7.68;3.95;;;;;;;15.40;50.65;99862.75;4444240;32;35289;-90
2022/05/02 02:39:38;;;;;;;7.12;3.83;;;;;;;15.44;50.71;99866.72;4444166;32;34183;-88
2022/05/02 02:42:06;;;;;;;6.82;3.75;;;;;;;15.49;50.54;99868.78;4443207;32;33353;-90
2022/05/02 02:44:34;;;;;;;7.40;4.30;;;;;;;15.55;50.42;99865.06;4444165;32;33557;-90
2022/05/02 02:47:02;;;;;;;7.07;3.72;;;;;;;15.58;50.21;99861.03;4444217;32;35200;-89
2022/05/02 02:49:29;;;;;;;7.00;3.80;;;;;;;15.57;50.14;99862.09;4441436;32;33970;-90
2022/05/02 02:51:57;;;;;;;14.00;7.47;;;;;;;15.49;50.37;99869.63;4440824;32;32758;-91
2022/05/02 02:54:25;;;;;;;11.30;6.40;;;;;;;15.46;50.62;99866.50;4444118;32;33880;-91
2022/05/02 02:56:53;;;;;;;50.20;22.13;;;;;;;15.58;50.52;99858.25;4444049;32;33979;-90
2022/05/02 02:59:20;;;;;;;21.60;10.10;;;;;;;15.59;50.58;99855.25;4456614;32;34834;-89
2022/05/02 03:01:48;;;;;;;12.35;7.25;;;;;;;15.51;50.97;99868.56;4444278;32;34196;-91
2022/05/02 03:07:02;;;;;;;8.98;4.32;;;;;;;15.67;50.63;99862.34;4445711;32;34617;-91
2022/05/02 03:09:30;;;;;;;10.15;4.10;;;;;;;15.70;50.49;99864.63;4443750;32;33974;-90
2022/05/02 03:11:58;;;;;;;6.55;4.25;;;;;;;15.57;50.94;99865.72;4443951;32;34084;-91
2022/05/02 03:14:26;;;;;;;8.70;4.57;;;;;;;15.62;50.79;99864.97;4444232;32;34512;-91
2022/05/02 03:16:54;;;;;;;8.00;4.28;;;;;;;15.54;51.21;99863.37;4443876;32;34448;-90
2022/05/02 03:19:22;;;;;;;7.78;4.57;;;;;;;15.55;51.36;99858.69;4443998;32;34588;-90
2022/05/02 03:21:49;;;;;;;6.93;4.00;;;;;;;15.37;52.21;99863.22;4443868;32;33182;-90
2022/05/02 03:24:17;;;;;;;7.22;4.30;;;;;;;15.52;51.76;99861.94;4456485;32;32266;-91
2022/05/02 03:26:45;;;;;;;9.30;4.40;;;;;;;15.41;52.25;99858.06;4443943;32;34279;-88
2022/05/02 03:29:13;;;;;;;6.90;4.25;;;;;;;15.38;52.40;99856.59;4431652;32;33184;-91
2022/05/02 03:31:40;;;;;;;7.18;4.00;;;;;;;15.58;51.83;99859.09;4457084;32;34229;-90
2022/05/02 03:34:11;;;;;;;7.12;4.53;;;;;;;15.49;52.22;99852.19;4470889;32;34727;-91
2022/05/02 03:36:39;;;;;;;7.40;4.30;;;;;;;15.57;52.02;99859.34;4444862;32;35078;-90
2022/05/02 03:39:06;;;;;;;7.78;4.28;;;;;;;15.52;51.87;99845.34;4444599;32;34000;-91
2022/05/02 03:41:34;;;;;;;7.30;4.07;;;;;;;15.54;51.57;99851.47;4443964;32;33049;-89
2022/05/02 03:44:02;;;;;;;7.20;4.35;;;;;;;15.58;51.08;99842.50;4443338;32;32952;-89
2022/05/02 03:46:29;;;;;;;7.55;4.22;;;;;;;15.54;51.36;99851.47;4444154;32;34217;-90
2022/05/02 03:48:59;;;;;;;6.45;4.07;;;;;;;15.57;51.34;99839.97;4443585;32;34050;-89
2022/05/02 03:51:27;;;;;;;8.82;3.92;;;;;;;15.55;51.56;99842.09;4444240;32;33160;-87
2022/05/02 03:53:55;;;;;;;7.18;4.03;;;;;;;15.58;51.51;99847.19;4443742;32;33668;-93
2022/05/02 03:56:22;;;;;;;8.55;4.07;;;;;;;15.67;51.20;99843.81;4443541;32;33081;-94
2022/05/02 03:58:53;;;;;;;8.63;4.20;;;;;;;15.70;51.09;99840.56;4443844;32;33992;-96
2022/05/02 04:01:20;;;;;;;6.90;4.57;;;;;;;15.47;51.69;99848.81;4445573;32;33512;-90
2022/05/02 04:03:48;;;;;;;8.32;4.40;;;;;;;15.54;51.81;99840.41;4443862;32;34695;-90
2022/05/02 04:06:16;;;;;;;7.25;4.40;;;;;;;15.59;51.68;99840.56;4443632;32;34266;-89
2022/05/02 04:08:43;;;;;;;8.25;4.55;;;;;;;15.64;51.58;99846.22;4442796;32;33886;-89
2022/05/02 04:11:11;;;;;;;7.95;4.25;;;;;;;15.68;51.41;99836.34;4443073;32;33913;-90
2022/05/02 04:13:39;;;;;;;8.55;5.03;;;;;;;15.60;51.79;99845.84;4443337;32;34432;-89
2022/05/02 04:16:06;;;;;;;7.78;4.65;;;;;;;15.70;51.66;99837.78;4441398;32;34744;-88
2022/05/02 04:18:34;;;;;;;8.15;4.47;;;;;;;15.66;51.87;99842.13;4441259;32;34769;-88
2022/05/02 04:21:02;;;;;;;8.48;4.32;;;;;;;15.55;52.23;99842.09;4440970;32;33004;-89
2022/05/02 04:23:29;;;;;;;6.93;3.90;;;;;;;15.68;51.95;99839.13;4441352;32;33748;-92
2022/05/02 04:25:57;;;;;;;7.20;4.53;;;;;;;15.74;51.88;99850.06;4428584;32;33947;-94
2022/05/02 04:28:24;;;;;;;6.80;4.25;;;;;;;15.85;51.88;99848.41;4441612;32;33679;-84
2022/05/02 04:30:52;;;;;;;7.30;4.03;;;;;;;15.84;52.03;99846.72;4430125;32;32772;-90
2022/05/02 04:33:20;;;;;;;6.12;4.00;;;;;;;15.97;52.73;99854.78;4443522;32;33763;-94
2022/05/02 04:35:47;;;;;;;6.78;4.50;;;;;;;16.08;51.99;99855.87;4443805;32;34496;-94
2022/05/02 04:38:15;;;;;;;8.55;4.07;;;;;;;16.13;51.85;99856.84;4456472;32;33695;-94
2022/05/02 04:40:43;;;;;;;7.85;4.45;;;;;;;16.09;51.89;99855.63;4443350;32;33538;-96
2022/05/02 04:43:10;;;;;;;7.95;4.50;;;;;;;16.11;51.90;99853.47;4442474;32;34092;-91
2022/05/02 04:45:40;;;;;;;8.10;4.07;;;;;;;16.13;52.03;99854.06;4456408;32;34392;-93
2022/05/02 04:48:09;;;;;;;7.62;4.35;;;;;;;16.24;52.05;99857.09;4443530;32;34027;-94
2022/05/02 04:50:36;;;;;;;7.32;5.15;;;;;;;16.17;51.80;99861.91;4443106;32;31502;-91
2022/05/02 04:53:04;;;;;;;8.82;5.97;;;;;;;16.24;51.77;99857.09;4442082;32;34440;-79
2022/05/02 04:55:33;;;;;;;11.35;6.30;;;;;;;16.17;51.90;99868.28;4470247;32;34419;-80
2022/05/02 04:58:04;;;;;;;8.20;4.78;;;;;;;16.25;51.44;99856.81;4443354;32;33355;-81
2022/05/02 05:00:32;;;;;;;7.45;3.80;;;;;;;16.29;50.93;99871.03;4456094;32;33089;-80
2022/05/02 05:02:59;;;;;;;8.88;4.85;;;;;;;16.59;50.59;99876.41;4469930;32;34571;-85
2022/05/02 05:05:30;;;;;;;9.25;5.30;;;;;;;16.69;53.36;99871.97;4443327;32;35061;-77
2022/05/02 05:07:58;;;;;;;7.65;4.72;;;;;;;16.73;51.06;99862.06;4448141;32;34785;-84
2022/05/02 05:10:26;;;;;;;9.15;4.55;;;;;;;16.68;49.34;99877.75;4443263;32;34362;-80
2022/05/02 05:13:06;;;;;;;8.27;4.37;;;;;;;16.88;48.62;99878.19;4440179;32;34280;-81
2022/05/02 05:18:48;;;;;;;11.05;4.87;;;;;;;16.90;46.48;99869.63;4453088;32;32717;-80
2022/05/02 05:21:18;;;;;;;7.97;4.65;;;;;;;16.99;45.97;99880.06;4461855;32;34134;-80
2022/05/02 05:24:38;;;;;;;9.15;4.35;;;;;;;16.95;45.57;99883.56;4442222;32;32122;-80
2022/05/02 05:27:27;;;;;;;8.18;4.47;;;;;;;17.07;45.55;99878.81;4441417;32;34308;-80
2022/05/02 05:30:07;;;;;;;8.75;4.30;;;;;;;17.05;45.17;99878.22;4455126;32;33578;-79
2022/05/02 05:32:40;;;;;;;11.25;5.00;;;;;;;16.83;43.89;99880.84;4442587;32;32846;-79
2022/05/02 05:35:09;;;;;;;7.80;4.55;;;;;;;16.77;43.98;99879.91;4455137;32;34520;-80
2022/05/02 05:37:56;;;;;;;9.02;4.93;;;;;;;16.94;44.07;99874.41;4454772;32;34587;-79
2022/05/02 05:40:28;;;;;;;7.05;4.53;;;;;;;17.06;44.35;99879.91;4439561;32;33588;-80
2022/05/02 05:43:34;;;;;;;10.13;6.22;;;;;;;17.03;44.97;99874.88;4453137;32;33236;-80
2022/05/02 05:46:16;;;;;;;8.32;4.43;;;;;;;17.04;44.67;99879.31;4455095;32;33944;-80
2022/05/02 05:49:02;;;;;;;10.27;4.62;;;;;;;17.19;44.75;99867.69;4454960;32;34433;-80
2022/05/02 05:51:38;;;;;;;7.53;4.87;;;;;;;17.24;44.97;99865.84;4439520;32;32497;-81
2022/05/02 05:54:31;;;;;;;7.75;4.53;;;;;;;17.30;45.00;99862.09;4453285;32;33318;-80
2022/05/02 05:57:24;;;;;;;7.43;5.03;;;;;;;17.39;45.01;99866.16;4471153;32;34084;-81
2022/05/02 06:00:11;;;;;;;8.45;4.87;;;;;;;17.42;45.08;99876.75;4444455;32;35072;-80
2022/05/02 06:02:55;;;;;;;7.97;4.90;;;;;;;17.40;44.43;99872.53;4444087;32;33207;-81
2022/05/02 06:05:23;;;;;;;9.60;4.43;;;;;;;17.37;44.64;99870.25;4471085;32;34141;-81
2022/05/02 06:07:52;;;;;;;11.20;4.93;;;;;;;17.47;45.22;99872.37;4456900;32;34042;-80
2022/05/02 06:10:23;;;;;;;9.30;4.78;;;;;;;17.52;45.07;99872.47;4456955;32;34278;-80
2022/05/02 06:12:52;;;;;;;9.32;4.80;;;;;;;17.58;44.89;99879.78;4442103;32;34691;-81
2022/05/02 06:20:57;;;;;;;9.18;4.50;;;;;;;17.70;45.21;99867.53;4458994;32;34534;-80
2022/05/02 06:23:32;;;;;;;11.48;4.60;;;;;;;17.63;45.30;99872.37;4444217;32;32614;-80
2022/05/02 06:26:02;;;;;;;12.48;4.70;;;;;;;17.75;45.05;99870.41;4456728;32;32958;-80
2022/05/02 06:28:36;;;;;;;11.50;5.53;;;;;;;17.73;45.12;99872.59;4444060;32;33573;-81
2022/05/02 06:31:05;;;;;;;10.85;5.28;;;;;;;17.78;45.40;99878.25;4456544;32;34744;-80
2022/05/02 06:33:32;;;;;;;10.15;4.75;;;;;;;17.84;45.25;99878.31;4431223;32;32403;-80
2022/05/02 06:36:17;;;;;;;11.93;7.57;;;;;;;17.82;45.31;99872.19;4440927;32;31931;-80
2022/05/02 06:38:50;;;;;;;13.73;5.30;;;;;;;17.90;44.91;99867.06;4470745;32;34224;-80
2022/05/02 06:41:32;;;;;;;18.23;5.15;;;;;;;17.88;45.21;99874.78;4456466;32;35221;-80
2022/05/02 06:44:12;;;;;;;10.40;5.22;;;;;;;17.86;45.32;99882.53;4470911;32;34129;-81
2022/05/02 06:46:52;;;;;;;9.45;5.30;;;;;;;17.87;45.61;99870.34;4456758;32;34116;-80
2022/05/02 06:49:20;;;;;;;12.30;5.20;;;;;;;17.74;46.58;99890.09;4456926;32;33631;-80
2022/05/02 06:51:55;;;;;;;9.02;4.55;;;;;;;17.85;47.29;99889.19;4456448;32;35312;-80
2022/05/02 06:54:56;;;;;;;9.20;5.03;;;;;;;17.80;48.50;99891.88;4470677;32;34053;-80
2022/05/02 06:57:47;;;;;;;8.00;4.90;;;;;;;17.70;50.00;99902.78;4424015;32;33557;-79
2022/05/02 07:00:17;;;;;;;8.55;5.20;;;;;;;17.59;51.02;99909.22;4464162;32;33670;-80
2022/05/02 07:03:14;;;;;;;11.38;5.75;;;;;;;17.75;51.18;99911.22;4440621;32;33708;-80
2022/05/02 07:06:06;;;;;;;14.00;6.35;;;;;;;17.76;51.71;99904.56;4456281;32;33986;-81
2022/05/02 07:08:43;;;;;;;14.02;6.62;;;;;;;17.68;51.70;99908.59;4456402;32;33509;-81
2022/05/02 07:11:20;;;;;;;8.85;6.05;;;;;;;17.64;52.12;99896.28;4443902;32;33892;-80
2022/05/02 07:14:05;;;;;;;10.50;7.32;;;;;;;17.63;51.89;99904.84;4443772;32;35409;-81
2022/05/02 07:16:37;;;;;;;10.02;6.75;;;;;;;17.51;50.67;99907.72;4456420;32;34146;-81
2022/05/02 07:19:27;;;;;;;13.52;7.07;;;;;;;17.63;49.93;99899.28;4440368;32;34068;-80
2022/05/02 07:22:02;;;;;;;11.02;7.50;;;;;;;17.56;50.20;99905.00;4425989;32;34469;-80
2022/05/02 07:24:40;;;;;;;11.98;7.72;;;;;;;17.70;49.59;99908.34;4454568;32;35644;-81
2022/05/02 07:27:36;;;;;;;12.23;7.45;;;;;;;17.54;50.25;99898.06;4441104;32;33877;-80
2022/05/02 07:30:04;;;;;;;11.18;7.95;;;;;;;17.68;49.13;99905.81;4428507;32;33324;-81
2022/05/02 07:32:33;;;;;;;19.20;10.70;;;;;;;17.65;49.75;99902.66;4428277;32;34581;-81
2022/05/02 07:35:01;;;;;;;19.67;10.35;;;;;;;17.65;49.27;99902.66;4440800;32;34223;-81
2022/05/02 07:37:31;;;;;;;18.83;12.25;;;;;;;17.73;48.72;99905.91;4441116;32;34981;-80
2022/05/02 07:39:59;;;;;;;12.32;7.75;;;;;;;17.77;48.69;99896.00;4441144;32;33352;-80
2022/05/02 07:42:36;;;;;;;12.23;8.68;;;;;;;17.92;48.03;99900.97;4441576;32;33520;-81
2022/05/02 07:45:10;;;;;;;14.40;8.18;;;;;;;18.04;47.75;99889.78;4454859;32;34548;-80
2022/05/02 07:47:42;;;;;;;14.10;7.80;;;;;;;18.09;47.66;99887.09;4428652;32;32587;-81
2022/05/02 07:50:12;;;;;;;11.82;6.68;;;;;;;18.32;47.00;99892.41;4428157;32;33372;-81
2022/05/02 07:52:41;;;;;;;10.98;6.37;;;;;;;18.31;46.72;99890.75;4428177;32;33988;-81
2022/05/02 07:55:09;;;;;;;9.00;5.70;;;;;;;18.49;47.36;99886.00;4440894;32;34362;-75
2022/05/02 07:57:39;;;;;;;10.38;5.80;;;;;;;18.53;46.26;99896.34;4455621;32;33977;-80
2022/05/02 08:00:07;;;;;;;13.35;5.40;;;;;;;18.70;45.74;99888.00;4446334;32;33346;-78
2022/05/02 08:02:38;;;;;;;12.23;4.68;;;;;;;18.89;45.37;99886.56;4443362;32;33920;-79
2022/05/02 08:05:10;;;;;;;8.18;3.70;;;;;;;18.81;47.27;99894.53;4455510;32;35352;-78
2022/05/02 08:07:39;;;;;;;9.55;4.37;;;;;;;18.87;47.03;99887.91;4440556;32;32884;-79
2022/05/02 08:10:24;;;;;;;15.02;8.07;;;;;;;19.13;45.06;99894.66;4455445;32;33309;-79
2022/05/02 08:12:57;;;;;;;8.43;4.03;;;;;;;19.03;44.51;99889.81;4456061;32;33478;-79
2022/05/02 08:16:05;;;;;;;11.85;6.87;;;;;;;19.03;46.86;99887.84;4456015;32;34915;-79
2022/05/02 08:19:05;;;;;;;7.85;3.80;;;;;;;19.32;45.00;99891.25;4418776;32;34164;-79
2022/05/02 08:27:15;;;;;;;7.55;4.32;;;;;;;19.30;46.55;99896.25;4452153;32;33172;-78
2022/05/02 08:28:09;;;;;;;6.65;3.35;;;;;;;19.58;44.49;99878.47;4453980;32;34374;-79
2022/05/02 08:30:42;;;;;;;7.07;3.95;;;;;;;19.58;45.84;99880.41;4439327;32;33668;-79
2022/05/02 08:33:15;;;;;;;6.45;3.90;;;;;;;19.67;44.90;99882.44;4448871;32;33293;-79
2022/05/02 08:35:51;;;;;;;9.93;3.62;;;;;;;19.81;44.37;99880.06;4438858;32;33795;-79
2022/05/02 08:38:43;;;;;;;9.82;5.40;;;;;;;19.91;43.86;99874.59;4457866;32;34975;-79
2022/05/02 08:41:25;;;;;;;7.03;3.60;;;;;;;20.05;44.28;99884.19;4451123;32;34570;-79
2022/05/02 08:44:26;;;;;;;8.35;3.20;;;;;;;20.23;42.99;99871.75;4468984;32;33615;-79
2022/05/02 08:47:21;;;;;;;5.60;3.12;;;;;;;20.35;42.96;99871.56;4454930;32;33187;-79
2022/05/02 08:50:20;;;;;;;5.80;3.53;;;;;;;20.45;42.65;99871.66;4461427;32;34489;-78
2022/05/02 08:53:12;;;;;;;6.85;2.87;;;;;;;20.46;43.82;99873.34;4467775;32;33920;-79
2022/05/02 08:55:47;;;;;;;6.55;3.37;;;;;;;20.47;44.09;99877.81;4464001;32;33351;-79
2022/05/02 08:58:52;;;;;;;5.37;2.78;;;;;;;20.53;43.29;99873.09;4458690;32;33405;-79
2022/05/02 09:01:29;;;;;;;4.95;2.85;;;;;;;20.64;43.08;99875.69;4440055;32;35042;-79
2022/05/02 09:04:35;;;;;;;5.78;3.53;;;;;;;20.52;43.41;99854.69;4440410;32;33879;-79
2022/05/02 09:07:40;;;;;;;7.50;4.40;;;;;;;20.64;43.55;99870.09;4454031;32;33588;-79
2022/05/02 09:10:07;;;;;;;8.85;4.57;;;;;;;20.48;43.37;99870.28;4439954;32;32482;-79
2022/05/02 09:13:04;;;;;;;10.15;3.55;;;;;;;20.36;44.20;99862.94;4453025;32;34496;-79
2022/05/02 09:15:53;;;;;;;7.20;3.62;;;;;;;20.20;44.74;99852.78;4419589;32;33822;-79
2022/05/02 09:18:46;;;;;;;10.30;4.68;;;;;;;20.28;43.44;99868.16;4453803;32;33269;-80
2022/05/02 09:21:33;;;;;;;9.63;4.87;;;;;;;20.29;43.82;99858.69;4434115;32;33619;-79
2022/05/02 09:24:22;;;;;;;6.97;3.75;;;;;;;20.33;43.13;99857.06;4453395;32;35168;-78
2022/05/02 09:27:05;;;;;;;6.70;3.30;;;;;;;20.42;43.06;99855.47;4453289;32;34724;-79
2022/05/02 09:29:59;;;;;;;9.15;3.50;;;;;;;20.51;42.60;99862.22;4452331;32;33237;-80
2022/05/02 09:32:46;;;;;;;8.07;3.12;;;;;;;20.35;44.20;99863.19;4440128;32;33757;-79
2022/05/02 09:35:30;;;;;;;8.13;3.25;;;;;;;20.45;42.82;99860.50;4454081;32;35057;-79
2022/05/02 09:38:18;;;;;;;5.12;2.60;;;;;;;20.49;42.69;99855.22;4439938;32;34259;-79
2022/05/02 09:40:46;;;;;;;6.90;2.62;;;;;;;20.43;42.78;99854.38;4443412;32;34170;-79
2022/05/02 09:49:33;;;;;;;8.45;2.80;;;;;;;20.09;41.94;99856.63;4464364;32;33909;-79
2022/05/02 09:49:33;;;;;;;4.50;2.40;;;;;;;20.34;40.92;99864.31;4455074;32;33629;-79
2022/05/02 09:52:15;;;;;;;5.70;2.75;;;;;;;20.53;40.20;99854.44;4440438;32;33671;-79
2022/05/02 09:58:04;;;;;;;4.75;2.03;;;;;;;20.44;39.74;99850.47;4456586;32;34427;-78
2022/05/02 10:03:37;;;;;;;28.50;4.03;;;;;;;20.61;41.03;99842.75;4436560;32;32158;-77
2022/05/02 10:06:08;;;;;;;16.73;7.43;;;;;;;20.60;40.85;99832.72;4450599;32;33753;-78
2022/05/02 10:09:02;;;;;;;7.60;2.40;;;;;;;20.62;42.59;99838.88;4424271;32;34282;-78
2022/05/02 10:11:57;;;;;;;5.03;2.12;;;;;;;20.71;41.94;99831.66;4421403;32;32653;-78
2022/05/02 10:14:48;;;;;;;10.85;3.75;;;;;;;21.02;40.50;99834.53;4446896;32;33335;-79
2022/05/02 10:17:25;;;;;;;6.55;2.20;;;;;;;21.28;38.88;99811.22;4439155;32;33939;-79
2022/05/02 10:20:02;;;;;;;5.65;2.40;;;;;;;21.43;37.89;99820.72;4437040;32;35210;-78
2022/05/02 10:22:31;;;;;;;9.80;2.60;;;;;;;21.67;38.52;99805.06;4436161;32;33411;-79
2022/05/02 10:25:18;;;;;;;5.15;2.55;;;;;;;21.72;39.48;99807.03;4444958;32;33884;-78
2022/05/02 10:28:07;;;;;;;4.55;2.45;;;;;;;21.80;38.45;99801.72;4449298;32;33856;-80
2022/05/02 10:30:53;;;;;;;7.60;3.65;;;;;;;21.82;37.81;99799.50;4434935;32;34808;-76
2022/05/02 10:33:44;;;;;;;7.20;2.70;;;;;;;21.98;37.49;99800.31;4438940;32;34883;-77
2022/05/02 10:36:12;;;;;;;6.32;3.08;;;;;;;22.00;40.00;99792.50;4438788;32;33440;-76
2022/05/02 10:38:58;;;;;;;10.10;2.90;;;;;;;21.96;39.89;99792.22;4438816;32;33051;-77
2022/05/02 10:41:25;;;;;;;5.72;2.03;;;;;;;22.04;40.24;99798.41;4439702;32;34616;-77
2022/05/02 10:44:00;;;;;;;3.22;1.62;;;;;;;22.22;35.37;99801.41;4454795;32;33851;-77
2022/05/02 10:46:31;;;;;;;5.53;2.00;;;;;;;22.29;35.74;99795.53;4455443;32;33316;-77
2022/05/02 10:49:05;;;;;;;8.32;4.82;;;;;;;22.11;35.38;99791.38;4455149;32;33691;-77
2022/05/02 10:51:33;;;;;;;10.98;5.60;;;;;;;21.91;36.14;99789.44;4455269;32;34413;-79
2022/05/02 10:54:00;;;;;;;8.65;3.58;;;;;;;22.24;36.72;99796.38;4452290;32;34734;-78
2022/05/02 10:56:35;;;;;;;6.65;3.20;;;;;;;22.22;37.93;99789.38;4455038;32;33240;-78
2022/05/02 10:59:05;;;;;;;4.85;2.15;;;;;;;22.12;37.30;99792.19;4455093;32;33842;-79
2022/05/02 11:02:05;;;;;;;6.32;2.15;;;;;;;22.17;37.92;99789.41;4434079;32;33180;-79
2022/05/02 11:04:32;;;;;;;6.55;2.40;;;;;;;22.14;37.75;99798.34;4438133;32;33988;-79
2022/05/02 11:07:08;;;;;;;4.45;1.98;;;;;;;22.23;36.88;99791.06;4453386;32;33988;-79
2022/05/02 11:09:39;;;;;;;;;;;;;;;22.07;36.07;99792.25;4441588;32;33745;-79
2022/05/02 11:12:11;;;;;;;4.10;2.28;;;;;;;21.81;36.57;99783.84;4455674;32;34559;-79
2022/05/02 11:14:55;;;;;;;7.05;2.28;;;;;;;22.09;35.99;99790.00;4456644;32;34714;-79
2022/05/02 11:18:09;;;;;;;5.68;2.47;;;;;;;22.32;36.03;99794.94;4441993;32;32653;-81
2022/05/02 11:20:51;;;;;;;14.52;4.82;;;;;;;22.44;35.19;99780.66;4444043;32;33768;-81
2022/05/02 11:23:28;;;;;;;9.90;3.95;;;;;;;22.53;37.82;99792.94;4423942;32;34389;-81
2022/05/02 11:26:32;;;;;;;6.60;2.90;;;;;;;22.59;36.48;99778.66;4470569;32;34791;-82
2022/05/02 11:29:10;;;;;;;6.20;2.67;;;;;;;22.72;34.37;99781.97;4444113;32;33413;-82
2022/05/02 11:32:01;;;;;;;7.25;2.40;;;;;;;22.91;34.91;99788.59;4456599;32;33798;-82
2022/05/02 11:34:41;;;;;;;6.47;2.58;;;;;;;22.83;34.06;99778.00;4456326;32;35161;-83
2022/05/02 11:37:15;;;;;;;5.55;2.20;;;;;;;22.87;35.38;99784.69;4456219;32;33888;-81
2022/05/02 11:39:57;;;;;;;7.43;4.10;;;;;;;23.04;32.20;99778.72;4469218;32;33413;-81
2022/05/02 11:42:28;;;;;;;5.00;2.20;;;;;;;23.09;33.37;99776.72;4456207;32;33360;-82
2022/05/02 11:45:05;;;;;;;5.30;2.40;;;;;;;23.16;34.08;99774.44;4443537;32;34478;-81
2022/05/02 11:48:12;;;;;;;7.72;2.20;;;;;;;23.19;32.65;99773.03;4430878;32;33414;-81
2022/05/02 11:50:44;;;;;;;4.32;1.95;;;;;;;23.18;33.66;99765.75;4470640;32;33397;-76
2022/05/02 11:53:14;;;;;;;6.57;2.50;;;;;;;23.15;32.64;99763.53;4454886;32;33712;-75
2022/05/02 11:55:46;;;;;;;4.40;2.20;;;;;;;22.98;32.14;99772.31;4456540;32;34597;-75
2022/05/02 11:58:13;;;;;;;6.75;2.15;;;;;;;23.03;33.88;99765.84;4470482;32;33875;-76
2022/05/02 12:00:41;;;;;;;7.95;4.12;;;;;;;23.17;32.85;99758.47;4470486;32;34655;-76
2022/05/02 12:03:18;;;;;;;5.72;2.97;;;;;;;23.24;33.59;99759.00;4456573;32;33899;-75
2022/05/02 12:05:55;;;;;;;4.68;2.35;;;;;;;23.25;32.66;99752.28;4456506;32;34461;-76
2022/05/02 12:08:34;;;;;;;6.95;2.97;;;;;;;23.40;32.36;99751.31;4470443;32;34145;-76
2022/05/02 12:11:14;;;;;;;5.65;2.30;;;;;;;23.33;33.41;99754.47;4456187;32;33435;-75
2022/05/02 12:13:45;;;;;;;4.43;2.25;;;;;;;23.58;33.30;99757.06;4456561;32;34441;-76
2022/05/02 12:16:17;;;;;;;6.20;2.33;;;;;;;24.03;32.64;99751.34;4456264;32;34369;-76
2022/05/02 12:18:55;;;;;;;6.00;2.10;;;;;;;24.40;31.25;99739.44;4470336;32;34757;-75
2022/05/02 12:21:24;;;;;;;5.60;2.90;;;;;;;24.62;30.05;99734.09;4456284;32;34169;-76
2022/05/02 12:23:52;;;;;;;5.07;2.53;;;;;;;24.46;29.14;99722.25;4470237;32;34602;-76
2022/05/02 12:26:21;;;;;;;5.93;2.60;;;;;;;24.71;29.45;99723.00;4456399;32;35154;-76
2022/05/02 12:28:55;;;;;;;4.78;2.00;;;;;;;24.86;29.06;99725.63;4443734;32;33212;-76
2022/05/02 12:31:27;;;;;;;10.95;4.72;;;;;;;25.30;29.50;99716.00;4443595;32;31826;-76
2022/05/02 12:34:06;;;;;;;14.48;7.18;;;;;;;25.32;28.08;99708.09;4470161;32;33435;-76